Time;durP1;ratioP1;P1;durP2;ratioP2;P2;SDS_P1;SDS_P2;PMS_P1;PMS_P2;Temp;Humidity;BMP_temperature;BMP_pressure;BME280_temperature;BME280_humidity;BME280_pressure;Samples;Min_cycle;Max_cycle;Signal;HPM_P1;HPM_P2
2021/12/25 00:00:35;;;;;;;11.35;4.75;;;7.60;91.00;;;;;;5026314;28;20042;-73
2021/12/25 00:03:03;;;;;;;7.47;3.72;;;7.60;91.10;;;;;;5028566;28;20837;-73
2021/12/25 00:05:36;;;;;;;10.98;4.47;;;7.70;91.10;;;;;;5003191;28;20069;-72
2021/12/25 00:08:22;;;;;;;;;;;7.60;91.00;;;;;;2604817;28;10002056;-74
2021/12/25 00:11:07;;;;;;;8.30;4.30;;;7.60;91.10;;;;;;3627841;28;10001685;-72
2021/12/25 00:13:42;;;;;;;8.13;4.30;;;7.60;91.10;;;;;;5009807;28;20124;-73
2021/12/25 00:16:10;;;;;;;7.65;4.25;;;7.60;91.10;;;;;;5008602;28;20049;-73
2021/12/25 00:18:39;;;;;;;8.10;4.03;;;7.60;91.10;;;;;;5004758;28;20412;-73
2021/12/25 00:21:08;;;;;;;11.18;5.13;;;7.60;91.10;;;;;;4991566;28;20459;-73
2021/12/25 00:23:36;;;;;;;10.85;5.10;;;7.60;91.10;;;;;;5008615;28;20046;-72
2021/12/25 00:26:09;;;;;;;11.45;5.45;;;7.60;91.10;;;;;;5008610;28;20041;-73
2021/12/25 00:28:59;;;;;;;21.65;7.80;;;7.60;91.10;;;;;;5008145;28;20419;-73
2021/12/25 00:31:44;;;;;;;16.85;7.43;;;7.60;91.10;;;;;;5009428;28;20096;-73
2021/12/25 00:34:14;;;;;;;13.23;6.65;;;7.50;91.10;;;;;;5009654;28;20045;-73
2021/12/25 00:36:41;;;;;;;8.57;4.87;;;7.60;91.10;;;;;;5009461;28;20041;-73
2021/12/25 00:39:09;;;;;;;8.68;4.88;;;7.60;91.10;;;;;;5011231;28;20397;-73
2021/12/25 00:41:37;;;;;;;12.30;5.05;;;7.60;91.10;;;;;;5009457;28;20112;-73
2021/12/25 00:44:06;;;;;;;12.63;5.43;;;7.60;91.20;;;;;;5011098;28;20060;-73
2021/12/25 00:46:33;;;;;;;9.20;4.90;;;7.60;91.20;;;;;;5010674;28;20042;-73
2021/12/25 00:49:00;;;;;;;7.18;4.25;;;7.60;91.20;;;;;;5010796;28;20044;-73
2021/12/25 00:51:28;;;;;;;9.57;4.78;;;7.60;91.20;;;;;;5010087;28;20049;-73
2021/12/25 00:53:55;;;;;;;9.77;4.72;;;7.60;91.30;;;;;;5010673;28;20503;-72
2021/12/25 00:56:22;;;;;;;9.65;4.97;;;7.60;91.20;;;;;;5011182;28;20057;-72
2021/12/25 00:58:51;;;;;;;10.27;4.25;;;7.60;91.30;;;;;;5011829;28;20058;-72
2021/12/25 01:01:18;;;;;;;9.80;4.45;;;7.60;91.20;;;;;;5008742;28;20047;-73
2021/12/25 01:03:47;;;;;;;10.80;4.93;;;7.60;91.20;;;;;;5001967;28;20137;-73
2021/12/25 01:06:15;;;;;;;9.35;3.90;;;7.60;91.20;;;;;;5008619;28;20073;-73
2021/12/25 01:08:42;;;;;;;8.73;4.68;;;7.60;91.20;;;;;;5010313;28;20049;-74
2021/12/25 01:11:09;;;;;;;11.05;4.78;;;7.60;91.20;;;;;;5010690;28;20038;-73
2021/12/25 01:13:40;;;;;;;9.68;4.93;;;7.60;91.20;;;;;;4992510;28;20049;-72
2021/12/25 01:16:30;;;;;;;9.32;4.57;;;7.60;91.20;;;;;;4993458;28;20053;-72
2021/12/25 01:19:26;;;;;;;10.68;4.85;;;7.60;91.20;;;;;;5008675;28;20400;-72
2021/12/25 01:22:08;;;;;;;10.15;4.55;;;7.60;91.20;;;;;;4992062;28;20069;-74
2021/12/25 01:24:58;;;;;;;9.60;5.05;;;7.60;91.20;;;;;;5009290;28;20060;-72
2021/12/25 01:27:58;;;;;;;9.95;4.43;;;7.60;91.20;;;;;;5008766;28;20050;-73
2021/12/25 01:30:33;;;;;;;11.40;5.70;;;7.60;91.20;;;;;;5009299;28;20054;-72
2021/12/25 01:33:29;;;;;;;10.57;4.70;;;7.60;91.20;;;;;;5007508;28;20061;-73
2021/12/25 01:36:39;;;;;;;8.48;4.60;;;7.60;91.20;;;;;;5008650;28;20382;-72
2021/12/25 01:39:41;;;;;;;9.73;4.60;;;7.60;91.20;;;;;;5007593;28;20455;-72
2021/12/25 01:48:45;;;;;;;9.05;4.72;;;7.60;91.10;;;;;;5004939;28;20041;-74
2021/12/25 01:51:13;;;;;;;9.00;4.03;;;7.60;91.10;;;;;;4990109;28;20133;-72
2021/12/25 01:53:42;;;;;;;12.00;4.53;;;7.60;91.10;;;;;;4991651;28;20054;-72
2021/12/25 01:56:09;;;;;;;10.40;4.90;;;7.60;91.00;;;;;;5005767;28;20072;-73
2021/12/25 01:58:42;;;;;;;11.27;4.85;;;7.60;91.00;;;;;;4990743;28;20057;-72
2021/12/25 02:01:15;;;;;;;9.35;4.05;;;7.60;91.00;;;;;;4988579;28;20097;-72
2021/12/25 02:03:44;;;;;;;10.20;4.80;;;7.50;91.00;;;;;;4997977;28;20045;-73
2021/12/25 02:06:12;;;;;;;8.52;4.55;;;7.60;90.90;;;;;;5005218;28;20045;-72
2021/12/25 02:08:42;;;;;;;10.55;4.72;;;7.60;91.00;;;;;;5008158;28;20065;-72
2021/12/25 02:11:11;;;;;;;9.80;4.65;;;7.50;90.90;;;;;;5008238;28;20193;-72
2021/12/25 02:13:39;;;;;;;9.10;4.18;;;7.60;90.90;;;;;;5007724;28;20042;-73
2021/12/25 02:16:12;;;;;;;7.80;3.97;;;7.50;90.80;;;;;;4985993;28;20065;-72
2021/12/25 02:18:57;;;;;;;8.27;3.75;;;7.50;90.80;;;;;;5008939;28;20116;-73
2021/12/25 02:21:44;;;;;;;6.97;3.63;;;7.50;90.70;;;;;;4992276;28;20050;-73
2021/12/25 02:24:13;;;;;;;8.63;4.15;;;7.50;90.60;;;;;;5006947;28;20046;-72
2021/12/25 02:26:43;;;;;;;12.00;4.15;;;7.50;90.50;;;;;;5012962;28;20084;-73
2021/12/25 02:29:10;;;;;;;9.52;4.05;;;7.50;90.40;;;;;;5012302;28;20046;-73
2021/12/25 02:31:38;;;;;;;8.30;4.32;;;7.50;90.30;;;;;;5013404;28;20393;-72
2021/12/25 02:34:05;;;;;;;9.02;4.47;;;7.40;90.20;;;;;;5013356;28;20041;-74
2021/12/25 02:36:32;;;;;;;9.38;4.30;;;7.40;90.20;;;;;;5002838;28;20052;-73
2021/12/25 02:39:01;;;;;;;8.95;3.85;;;7.40;90.20;;;;;;4995152;28;20488;-72
2021/12/25 02:41:28;;;;;;;7.38;3.95;;;7.40;90.20;;;;;;4993907;28;20103;-73
2021/12/25 02:43:55;;;;;;;8.15;4.20;;;7.40;90.10;;;;;;5012981;28;20046;-72
2021/12/25 02:46:35;;;;;;;8.98;3.78;;;7.40;90.10;;;;;;5011633;28;20064;-72
2021/12/25 02:49:02;;;;;;;6.35;3.58;;;7.40;90.10;;;;;;5010662;28;20049;-74
2021/12/25 02:51:29;;;;;;;8.73;4.43;;;7.40;90.10;;;;;;4996029;28;20049;-74
2021/12/25 02:53:56;;;;;;;8.75;4.03;;;7.40;90.00;;;;;;5002064;28;20057;-74
2021/12/25 02:56:24;;;;;;;7.82;3.63;;;7.40;89.90;;;;;;5011301;28;20144;-74
2021/12/25 02:58:51;;;;;;;10.40;3.97;;;7.40;89.80;;;;;;5012303;28;20054;-74
2021/12/25 03:01:21;;;;;;;7.18;4.03;;;7.40;89.70;;;;;;5009412;28;20447;-73
2021/12/25 03:03:48;;;;;;;7.18;4.05;;;7.40;89.70;;;;;;5008791;28;21265;-72
2021/12/25 03:06:15;;;;;;;8.95;4.15;;;7.40;89.60;;;;;;5006413;28;20056;-73
2021/12/25 03:08:43;;;;;;;7.40;3.80;;;7.40;89.50;;;;;;4994838;28;20061;-73
2021/12/25 03:11:13;;;;;;;8.48;3.50;;;7.40;89.40;;;;;;5011283;28;20058;-73
2021/12/25 03:13:45;;;;;;;;;;;7.30;89.30;;;;;;5012785;28;20073;-73
2021/12/25 03:16:15;;;;;;;5.93;2.97;;;7.40;89.20;;;;;;4992691;28;19932;-73
2021/12/25 03:18:48;;;;;;;8.23;3.20;;;7.40;89.20;;;;;;5009445;28;20042;-73
2021/12/25 03:21:17;;;;;;;4.65;2.28;;;7.40;89.00;;;;;;5000539;28;20054;-73
2021/12/25 03:23:47;;;;;;;10.90;3.42;;;7.40;89.00;;;;;;5008975;28;20053;-73
2021/12/25 03:26:14;;;;;;;5.68;2.22;;;7.40;88.80;;;;;;4992132;28;20516;-73
2021/12/25 03:28:46;;;;;;;4.78;2.30;;;7.40;88.70;;;;;;5008045;28;20076;-73
2021/12/25 03:31:18;;;;;;;6.72;2.28;;;7.30;88.40;;;;;;5008444;28;20050;-73
2021/12/25 03:33:47;;;;;;;4.38;2.10;;;7.30;88.40;;;;;;5008983;28;20053;-73
2021/12/25 03:36:14;;;;;;;4.00;1.75;;;7.30;88.50;;;;;;4992013;28;20063;-73
2021/12/25 03:38:42;;;;;;;4.38;1.98;;;7.20;88.40;;;;;;5008620;28;20048;-73
2021/12/25 03:41:09;;;;;;;4.57;1.95;;;7.20;88.30;;;;;;5009255;28;20444;-73
2021/12/25 03:43:46;;;;;;;3.67;1.60;;;7.20;88.40;;;;;;5007351;28;20148;-74
2021/12/25 03:46:14;;;;;;;2.75;1.30;;;7.20;88.30;;;;;;4991196;28;20104;-72
2021/12/25 04:00:00;;;;;;;2.60;1.27;;;7.00;87.90;;;;;;5010010;28;20049;-72
2021/12/25 04:02:35;;;;;;;2.42;1.02;;;7.10;87.80;;;;;;4993950;28;20049;-74
2021/12/25 04:05:04;;;;;;;4.15;1.00;;;7.00;87.60;;;;;;4992004;28;20444;-74
2021/12/25 04:10:18;;;;;;;2.65;1.23;;;7.00;87.70;;;;;;5005871;28;20042;-73
2021/12/25 04:12:45;;;;;;;2.15;1.13;;;6.90;87.40;;;;;;4992892;28;20065;-73
2021/12/25 04:15:14;;;;;;;3.65;1.25;;;6.90;87.50;;;;;;4993564;28;20046;-73
2021/12/25 04:17:41;;;;;;;3.30;1.00;;;6.90;87.40;;;;;;4994537;28;20164;-74
2021/12/25 04:20:09;;;;;;;2.38;1.10;;;6.90;87.40;;;;;;5008736;28;20050;-73
2021/12/25 04:22:43;;;;;;;1.02;0.70;;;6.90;87.40;;;;;;5010937;28;20072;-75
2021/12/25 04:25:11;;;;;;;1.52;0.80;;;6.90;87.20;;;;;;5010376;28;20488;-73
2021/12/25 04:27:44;;;;;;;2.40;1.08;;;6.80;87.20;;;;;;5010633;28;20046;-74
2021/12/25 04:30:27;;;;;;;2.17;0.70;;;6.80;87.10;;;;;;5009370;28;20074;-74
2021/12/25 05:03:47;;;;;;;2.55;1.10;;;6.60;86.70;;;;;;5009656;28;20555;-72
2021/12/25 05:06:39;;;;;;;2.67;1.00;;;6.60;86.30;;;;;;5004814;28;20428;-74
2021/12/25 05:09:06;;;;;;;2.25;1.00;;;6.50;86.30;;;;;;5006842;28;20397;-74
2021/12/25 05:11:34;;;;;;;2.75;1.10;;;6.50;86.10;;;;;;5003315;28;20464;-72
2021/12/25 05:14:01;;;;;;;2.22;0.90;;;6.40;86.20;;;;;;5006121;28;20119;-75
2021/12/25 05:16:47;;;;;;;1.50;0.80;;;6.40;86.30;;;;;;4991234;28;20495;-73
2021/12/25 05:19:14;;;;;;;2.78;1.33;;;6.40;86.40;;;;;;5006314;28;20053;-72
2021/12/25 05:21:42;;;;;;;1.20;0.70;;;6.30;86.40;;;;;;5006960;28;20054;-73
2021/12/25 05:24:09;;;;;;;0.95;0.65;;;6.30;86.20;;;;;;4990489;28;20050;-74
2021/12/25 05:26:42;;;;;;;1.85;0.93;;;6.30;86.10;;;;;;4998326;28;20046;-73
2021/12/25 05:29:09;;;;;;;3.47;1.48;;;6.30;86.20;;;;;;4990590;28;20144;-73
2021/12/25 05:31:38;;;;;;;1.70;0.93;;;6.30;86.30;;;;;;4997728;28;20041;-72
2021/12/25 05:34:17;;;;;;;1.23;0.65;;;6.30;86.00;;;;;;5000260;28;20081;-73
2021/12/25 05:36:57;;;;;;;2.08;1.23;;;6.30;86.00;;;;;;5010456;28;20046;-74
2021/12/25 05:39:50;;;;;;;2.10;1.00;;;6.20;86.00;;;;;;4997939;28;20104;-73
2021/12/25 05:42:19;;;;;;;2.55;1.10;;;6.20;85.90;;;;;;4992335;28;20050;-72
2021/12/25 05:44:46;;;;;;;1.25;0.73;;;6.20;85.90;;;;;;4992217;28;20050;-75
2021/12/25 05:47:25;;;;;;;1.83;1.02;;;6.20;85.80;;;;;;5011228;28;20075;-73
2021/12/25 05:49:58;;;;;;;2.10;1.10;;;6.20;85.60;;;;;;5008577;28;20447;-74
2021/12/25 05:52:41;;;;;;;1.33;0.82;;;6.10;85.60;;;;;;4998481;28;20312;-76
2021/12/25 05:55:37;;;;;;;2.20;1.42;;;6.10;85.60;;;;;;4973914;28;20599;-75
2021/12/25 05:58:23;;;;;;;2.95;1.02;;;6.10;85.60;;;;;;5009519;28;20041;-73
2021/12/25 06:01:03;;;;;;;1.70;0.88;;;6.10;85.60;;;;;;5006542;28;20119;-74
2021/12/25 06:03:30;;;;;;;1.65;1.00;;;6.10;85.60;;;;;;4995760;28;20054;-74
2021/12/25 06:05:57;;;;;;;1.05;0.77;;;6.10;85.40;;;;;;5014138;28;20052;-75
2021/12/25 06:08:26;;;;;;;1.80;1.00;;;6.00;85.50;;;;;;5013497;28;20061;-77
2021/12/25 06:10:53;;;;;;;1.90;1.00;;;6.00;85.50;;;;;;5012152;28;20502;-74
2021/12/25 06:13:22;;;;;;;3.45;1.38;;;6.00;85.40;;;;;;5013749;28;20056;-75
2021/12/25 06:15:52;;;;;;;1.35;0.80;;;6.00;85.40;;;;;;4996513;28;20745;-73
2021/12/25 06:18:45;;;;;;;1.42;0.77;;;5.90;85.40;;;;;;5011088;28;20456;-74
2021/12/25 06:21:20;;;;;;;1.77;0.77;;;5.90;85.40;;;;;;4995712;28;20460;-72
2021/12/25 06:24:07;;;;;;;1.30;0.82;;;5.90;85.30;;;;;;5013473;28;20064;-76
2021/12/25 06:27:00;;;;;;;2.35;1.25;;;5.90;85.00;;;;;;4997246;28;20058;-74
2021/12/25 06:30:01;;;;;;;;;;;5.80;85.00;;;;;;4980874;28;20053;-74
2021/12/25 06:32:47;;;;;;;1.45;0.73;;;5.80;85.20;;;;;;5013815;28;20294;-73
2021/12/25 06:35:33;;;;;;;2.47;1.05;;;5.80;85.20;;;;;;5011590;28;20143;-71
2021/12/25 06:38:30;;;;;;;1.98;0.75;;;5.80;85.20;;;;;;4974580;28;20094;-75
2021/12/25 06:41:05;;;;;;;2.65;1.10;;;5.80;85.20;;;;;;5002074;28;20120;-72
2021/12/25 06:43:33;;;;;;;1.90;0.77;;;5.70;85.20;;;;;;5011784;28;20157;-74
2021/12/25 06:46:00;;;;;;;1.30;0.90;;;5.70;85.20;;;;;;5010714;28;20456;-73
2021/12/25 06:48:28;;;;;;;5.03;1.35;;;5.80;85.10;;;;;;4993572;28;20049;-71
2021/12/25 06:51:13;;;;;;;1.48;0.90;;;5.70;84.90;;;;;;5011649;28;20509;-72
2021/12/25 06:53:50;;;;;;;3.10;1.13;;;5.70;85.00;;;;;;5008297;28;20191;-73
2021/12/25 06:56:50;;;;;;;1.13;0.73;;;5.70;84.80;;;;;;4987921;28;20397;-73
2021/12/25 06:59:24;;;;;;;1.20;0.75;;;5.60;84.60;;;;;;4993683;28;20567;-72
2021/12/25 07:01:52;;;;;;;0.98;0.63;;;5.60;84.50;;;;;;4990640;28;20052;-73
2021/12/25 07:04:38;;;;;;;2.10;0.77;;;5.50;84.40;;;;;;5010653;28;20053;-73
2021/12/25 07:07:22;;;;;;;2.15;0.80;;;5.60;84.40;;;;;;4993203;28;20152;-73
2021/12/25 07:10:17;;;;;;;2.70;0.85;;;5.50;84.30;;;;;;5009171;28;20503;-74
2021/12/25 07:12:56;;;;;;;1.80;0.60;;;5.50;83.90;;;;;;4994171;28;20050;-73
2021/12/25 07:15:46;;;;;;;2.70;0.70;;;5.50;83.80;;;;;;5011789;28;20141;-74
2021/12/25 07:18:35;;;;;;;2.08;0.95;;;5.40;83.70;;;;;;4996009;28;20042;-73
2021/12/25 07:21:13;;;;;;;1.85;0.90;;;5.40;83.80;;;;;;4995046;28;20054;-71
2021/12/25 07:24:03;;;;;;;1.80;0.90;;;5.40;83.80;;;;;;4992465;28;20076;-73
2021/12/25 07:26:36;;;;;;;2.63;0.77;;;5.40;83.60;;;;;;5011353;28;20477;-72
2021/12/25 07:29:14;;;;;;;1.40;0.75;;;5.30;83.60;;;;;;5011755;28;20507;-73
2021/12/25 07:31:41;;;;;;;2.05;1.00;;;5.30;83.60;;;;;;5013136;28;20522;-73
2021/12/25 07:34:08;;;;;;;2.13;0.82;;;5.30;83.60;;;;;;5012368;28;20053;-72
2021/12/25 07:36:35;;;;;;;2.45;1.00;;;5.30;83.70;;;;;;5002748;28;20577;-75
2021/12/25 07:39:02;;;;;;;3.03;1.45;;;5.30;83.80;;;;;;5012666;28;20160;-72
2021/12/25 07:41:29;;;;;;;2.00;0.90;;;5.30;83.70;;;;;;5012554;28;20479;-76
2021/12/25 07:43:56;;;;;;;1.67;0.65;;;5.30;83.60;;;;;;5012909;28;20056;-73
2021/12/25 07:46:42;;;;;;;2.20;0.95;;;5.20;83.60;;;;;;5013063;28;20080;-72
2021/12/25 07:49:15;;;;;;;2.47;1.27;;;5.20;83.40;;;;;;5013142;28;20092;-74
2021/12/25 07:51:42;;;;;;;1.98;1.00;;;5.20;83.50;;;;;;5012169;28;20519;-74
2021/12/25 07:54:09;;;;;;;1.80;1.17;;;5.20;83.40;;;;;;5012366;28;20041;-73
2021/12/25 07:56:36;;;;;;;2.88;1.42;;;5.20;83.40;;;;;;5012487;28;20057;-75
2021/12/25 07:59:03;;;;;;;2.55;1.02;;;5.10;83.30;;;;;;5012048;28;20073;-73
2021/12/25 08:01:32;;;;;;;2.10;0.80;;;5.10;83.20;;;;;;5008600;28;20046;-76
2021/12/25 08:04:00;;;;;;;1.75;0.82;;;5.10;83.20;;;;;;5011672;28;20046;-74
2021/12/25 08:06:34;;;;;;;2.05;0.93;;;5.00;83.20;;;;;;5010958;28;20042;-75
2021/12/25 08:09:04;;;;;;;2.05;0.93;;;5.00;83.30;;;;;;5010814;28;20065;-75
2021/12/25 08:11:30;;;;;;;1.90;1.02;;;5.00;83.20;;;;;;5011799;28;20037;-73
2021/12/25 08:13:58;;;;;;;1.55;0.70;;;5.00;83.20;;;;;;5010560;28;20042;-75
2021/12/25 08:16:25;;;;;;;3.00;0.95;;;5.00;83.00;;;;;;5009748;28;20041;-73
2021/12/25 08:18:52;;;;;;;2.25;0.88;;;4.90;82.90;;;;;;5006577;28;20384;-73
2021/12/25 08:21:38;;;;;;;1.95;1.00;;;4.90;83.00;;;;;;5010628;28;20134;-74
2021/12/25 08:24:24;;;;;;;2.33;1.15;;;4.90;82.80;;;;;;5008716;28;20049;-73
2021/12/25 08:27:10;;;;;;;2.10;0.95;;;4.80;82.60;;;;;;5009973;28;20053;-75
2021/12/25 08:29:56;;;;;;;1.50;0.88;;;4.80;82.80;;;;;;5010210;28;20220;-71
2021/12/25 08:32:42;;;;;;;3.92;1.65;;;4.70;82.90;;;;;;5010009;28;20061;-73
2021/12/25 08:35:30;;;;;;;3.13;1.42;;;4.70;82.80;;;;;;5009088;28;20101;-74
2021/12/25 08:37:59;;;;;;;1.67;0.95;;;4.70;82.80;;;;;;5010245;28;20042;-74
2021/12/25 08:40:27;;;;;;;3.33;1.73;;;4.70;82.80;;;;;;5008021;28;20587;-74
2021/12/25 08:42:59;;;;;;;3.28;1.63;;;4.70;83.00;;;;;;5005349;28;20041;-74
2021/12/25 08:45:45;;;;;;;3.28;1.30;;;4.70;82.80;;;;;;5009051;28;20132;-72
2021/12/25 08:48:16;;;;;;;4.65;1.27;;;4.70;83.00;;;;;;5008850;28;20042;-73
2021/12/25 08:50:44;;;;;;;;;;;4.60;83.00;;;;;;5008699;28;20400;-74
2021/12/25 08:53:13;;;;;;;1.77;0.98;;;4.60;83.20;;;;;;5010062;28;19925;-72
2021/12/25 08:55:40;;;;;;;3.72;1.50;;;4.60;83.10;;;;;;5010828;28;20052;-74
2021/12/25 08:58:07;;;;;;;2.72;1.23;;;4.60;83.00;;;;;;5010563;28;20100;-72
2021/12/25 09:00:35;;;;;;;2.78;1.27;;;4.60;83.10;;;;;;5009554;28;20042;-71
2021/12/25 09:03:02;;;;;;;2.80;1.00;;;4.60;83.00;;;;;;5010546;28;20053;-70
2021/12/25 09:05:30;;;;;;;2.58;1.00;;;4.60;82.80;;;;;;5011227;28;20053;-71
2021/12/25 09:07:57;;;;;;;3.85;1.17;;;4.60;82.80;;;;;;5009981;28;20052;-70
2021/12/25 09:10:28;;;;;;;1.95;0.70;;;4.60;82.30;;;;;;5011003;28;20407;-71
2021/12/25 09:12:56;;;;;;;2.25;1.20;;;4.50;82.30;;;;;;5009603;28;20045;-70
2021/12/25 09:15:23;;;;;;;2.55;1.13;;;4.50;82.20;;;;;;5010410;28;20077;-71
2021/12/25 09:17:50;;;;;;;2.60;1.00;;;4.40;82.00;;;;;;5010459;28;20046;-70
2021/12/25 09:20:19;;;;;;;3.28;1.10;;;4.30;82.20;;;;;;5010484;28;20073;-71
2021/12/25 09:22:46;;;;;;;2.10;0.93;;;4.30;82.20;;;;;;5010377;28;20044;-69
2021/12/25 09:25:14;;;;;;;2.20;1.10;;;4.30;82.40;;;;;;5010806;28;20113;-69
2021/12/25 09:27:43;;;;;;;3.28;0.93;;;4.30;82.50;;;;;;5010009;28;20073;-69
2021/12/25 09:30:12;;;;;;;2.53;1.38;;;4.30;82.40;;;;;;5010777;28;20056;-71
2021/12/25 09:32:39;;;;;;;3.47;1.35;;;4.30;82.50;;;;;;5010715;28;20053;-69
2021/12/25 09:35:07;;;;;;;3.05;1.10;;;4.30;82.60;;;;;;5009074;28;20050;-70
2021/12/25 09:37:34;;;;;;;4.25;1.33;;;4.30;82.50;;;;;;5011018;28;20057;-69
2021/12/25 09:40:00;;;;;;;2.00;1.08;;;4.30;82.30;;;;;;5010924;28;20046;-70
2021/12/25 09:42:29;;;;;;;3.42;1.35;;;4.20;82.40;;;;;;5010600;28;20130;-70
2021/12/25 09:44:58;;;;;;;3.50;1.15;;;4.20;82.40;;;;;;5010384;28;20457;-68
2021/12/25 09:47:25;;;;;;;3.97;1.67;;;4.20;82.50;;;;;;5010878;28;20049;-70
2021/12/25 09:49:52;;;;;;;2.70;1.10;;;4.20;82.50;;;;;;5009540;28;20052;-69
2021/12/25 09:52:20;;;;;;;1.95;0.90;;;4.20;82.40;;;;;;5009956;28;20046;-71
2021/12/25 09:54:47;;;;;;;2.35;1.25;;;4.20;82.30;;;;;;5008287;28;20060;-72
2021/12/25 09:57:15;;;;;;;3.05;1.00;;;4.10;82.20;;;;;;5008907;28;20041;-70
2021/12/25 09:59:42;;;;;;;2.97;1.40;;;4.10;82.40;;;;;;5008608;28;20053;-71
2021/12/25 10:02:14;;;;;;;2.95;1.45;;;4.20;82.30;;;;;;5006238;28;20038;-71
2021/12/25 10:04:43;;;;;;;3.53;1.15;;;4.10;82.30;;;;;;5008298;28;20046;-71
2021/12/25 10:07:29;;;;;;;3.28;1.40;;;4.10;82.20;;;;;;5008138;28;20408;-69
2021/12/25 10:10:02;;;;;;;2.85;1.13;;;4.00;82.30;;;;;;5008062;28;20054;-69
2021/12/25 10:12:36;;;;;;;2.67;1.00;;;4.00;82.40;;;;;;5007548;28;20038;-70
2021/12/25 10:15:05;;;;;;;2.85;1.20;;;4.10;82.40;;;;;;5007691;28;20045;-70
2021/12/25 10:17:34;;;;;;;4.38;1.40;;;4.00;82.20;;;;;;5008083;28;20112;-69
2021/12/25 10:20:11;;;;;;;4.78;1.70;;;4.10;82.10;;;;;;5008011;28;20037;-71
2021/12/25 10:23:00;;;;;;;3.85;1.80;;;4.00;82.20;;;;;;5007286;28;20046;-70
2021/12/25 10:25:32;;;;;;;2.83;1.52;;;4.00;82.20;;;;;;5008056;28;20088;-70
2021/12/25 10:28:02;;;;;;;3.88;2.00;;;4.00;82.30;;;;;;5008641;28;20054;-69
2021/12/25 10:30:49;;;;;;;3.53;2.20;;;4.00;82.30;;;;;;5008343;28;20050;-68
2021/12/25 10:33:35;;;;;;;4.30;2.47;;;4.00;82.20;;;;;;5009159;28;20046;-70
2021/12/25 10:36:05;;;;;;;4.13;2.15;;;3.90;82.10;;;;;;5009956;28;20141;-69
2021/12/25 10:38:32;;;;;;;2.25;1.25;;;3.90;82.30;;;;;;5009749;28;20073;-69
2021/12/25 10:41:17;;;;;;;4.85;1.73;;;3.90;82.20;;;;;;5008123;28;20088;-70
2021/12/25 10:43:44;;;;;;;2.40;1.30;;;3.90;82.30;;;;;;5008162;28;20388;-69
2021/12/25 10:46:11;;;;;;;2.88;1.00;;;3.90;82.20;;;;;;5009530;28;20054;-70
2021/12/25 10:48:40;;;;;;;2.28;1.00;;;3.90;82.30;;;;;;5010821;28;20599;-68
2021/12/25 10:51:24;;;;;;;5.70;1.50;;;3.90;82.30;;;;;;5013536;28;20042;-69
2021/12/25 10:53:52;;;;;;;4.38;1.92;;;3.90;82.40;;;;;;5013552;28;20052;-68
2021/12/25 10:56:20;;;;;;;2.45;1.20;;;3.90;82.30;;;;;;5012436;28;20076;-69
2021/12/25 10:58:48;;;;;;;3.40;1.63;;;3.80;82.20;;;;;;5012804;28;20570;-70
2021/12/25 11:01:17;;;;;;;2.03;1.52;;;3.90;82.30;;;;;;5010814;28;20046;-69
2021/12/25 11:03:47;;;;;;;4.05;1.40;;;3.80;82.30;;;;;;5013458;28;20041;-69
2021/12/25 11:06:18;;;;;;;3.22;1.40;;;3.80;82.30;;;;;;5011963;28;20046;-69
2021/12/25 11:08:46;;;;;;;3.67;1.52;;;3.90;82.30;;;;;;5013362;28;20141;-69
2021/12/25 11:11:16;;;;;;;5.55;1.80;;;3.90;82.20;;;;;;5012565;28;20061;-68
2021/12/25 11:13:47;;;;;;;2.38;1.33;;;3.90;82.20;;;;;;5012652;28;20048;-68
2021/12/25 11:16:21;;;;;;;;;;;3.90;82.30;;;;;;5013301;28;20041;-69
2021/12/25 11:19:04;;;;;;;3.70;1.23;;;3.90;82.20;;;;;;5009400;28;19921;-69
2021/12/25 11:21:33;;;;;;;2.75;1.33;;;3.90;82.10;;;;;;5012506;28;20157;-69
2021/12/25 11:24:09;;;;;;;3.55;1.27;;;3.80;82.10;;;;;;5008383;28;20049;-70
2021/12/25 11:26:38;;;;;;;3.45;1.10;;;3.90;82.10;;;;;;5012437;28;20070;-70
2021/12/25 11:29:07;;;;;;;2.13;1.08;;;3.90;82.00;;;;;;5011873;28;20064;-72
2021/12/25 11:31:34;;;;;;;3.00;1.38;;;3.90;81.90;;;;;;5010670;28;20080;-72
2021/12/25 11:34:03;;;;;;;2.70;1.08;;;3.90;82.00;;;;;;5010080;28;20042;-69
2021/12/25 11:36:30;;;;;;;1.40;0.85;;;3.90;81.80;;;;;;5010249;28;20133;-70
2021/12/25 11:38:57;;;;;;;2.10;1.25;;;3.90;81.80;;;;;;5007484;28;20044;-72
2021/12/25 11:41:28;;;;;;;2.08;1.38;;;3.90;81.60;;;;;;5008208;28;20394;-72
2021/12/25 11:43:55;;;;;;;;;;;3.90;81.70;;;;;;5011186;28;20038;-70
2021/12/25 11:46:24;;;;;;;1.73;0.90;;;3.90;81.80;;;;;;4991703;28;20272;-72
2021/12/25 11:49:08;;;;;;;2.22;1.00;;;3.90;81.80;;;;;;5009662;28;20500;-71
2021/12/25 11:51:35;;;;;;;2.78;1.40;;;3.90;81.60;;;;;;5009712;28;20046;-69
2021/12/25 11:54:16;;;;;;;2.03;1.20;;;3.90;81.70;;;;;;5009755;28;20058;-71
2021/12/25 11:57:04;;;;;;;2.60;1.20;;;3.90;81.60;;;;;;5009148;28;20038;-71
2021/12/25 11:59:44;;;;;;;3.00;1.85;;;3.90;81.60;;;;;;4990732;28;20390;-70
2021/12/25 12:02:11;;;;;;;2.85;1.67;;;3.90;81.70;;;;;;5006890;28;20042;-72
2021/12/25 12:04:40;;;;;;;3.40;1.50;;;3.90;81.60;;;;;;5009176;28;20045;-71
2021/12/25 12:07:18;;;;;;;3.53;1.35;;;3.90;81.50;;;;;;5009090;28;20104;-71
2021/12/25 12:10:11;;;;;;;2.08;1.17;;;3.90;81.50;;;;;;4979500;28;20443;-71
2021/12/25 12:13:16;;;;;;;3.67;1.38;;;3.90;81.40;;;;;;4982111;28;20074;-71
2021/12/25 12:16:05;;;;;;;1.75;1.10;;;3.90;81.40;;;;;;4977055;28;20059;-70
2021/12/25 12:18:53;;;;;;;3.35;1.40;;;3.90;81.30;;;;;;4972822;28;20408;-69
2021/12/25 12:21:40;;;;;;;3.90;1.30;;;3.90;81.40;;;;;;4982506;28;20555;-70
2021/12/25 12:24:40;;;;;;;2.45;0.95;;;3.90;81.50;;;;;;4979627;28;20134;-71
2021/12/25 12:27:08;;;;;;;1.73;1.08;;;3.90;81.40;;;;;;4982328;28;20045;-70
2021/12/25 12:29:47;;;;;;;2.40;1.02;;;3.90;81.30;;;;;;4980886;28;20050;-70
2021/12/25 12:32:34;;;;;;;2.53;1.15;;;3.90;81.30;;;;;;4980795;28;20805;-69
2021/12/25 12:35:01;;;;;;;2.75;1.10;;;3.90;81.20;;;;;;4981267;28;20053;-72
2021/12/25 12:37:32;;;;;;;2.53;1.10;;;3.80;81.30;;;;;;4981761;28;20043;-70
2021/12/25 12:40:23;;;;;;;2.55;1.10;;;3.80;81.00;;;;;;4980774;28;20117;-70
2021/12/25 12:42:55;;;;;;;3.45;1.02;;;3.80;81.00;;;;;;4981430;28;20042;-70
2021/12/25 12:45:24;;;;;;;1.92;0.82;;;3.70;81.20;;;;;;4982607;28;20089;-69
2021/12/25 12:48:12;;;;;;;2.53;1.02;;;3.70;81.20;;;;;;4997649;28;20409;-71
2021/12/25 12:50:40;;;;;;;1.67;1.00;;;3.70;81.10;;;;;;4982161;28;20485;-70
2021/12/25 12:53:09;;;;;;;1.80;1.00;;;3.70;81.10;;;;;;4982140;28;20047;-70
2021/12/25 12:55:38;;;;;;;2.83;1.60;;;3.70;81.40;;;;;;4981787;28;20047;-69
2021/12/25 12:58:11;;;;;;;2.47;1.13;;;3.70;81.50;;;;;;4981312;28;20070;-69
2021/12/25 13:00:39;;;;;;;2.38;1.50;;;3.70;81.40;;;;;;4980084;28;20042;-68
2021/12/25 13:03:07;;;;;;;3.58;2.15;;;3.70;81.40;;;;;;4980763;28;20069;-70
2021/12/25 13:05:38;;;;;;;4.72;1.23;;;3.60;81.30;;;;;;4987600;28;20416;-71
2021/12/25 13:08:19;;;;;;;3.08;1.27;;;3.60;81.40;;;;;;4984438;28;20047;-69
2021/12/25 13:10:50;;;;;;;;;;;3.70;81.40;;;;;;5011359;28;20439;-70
2021/12/25 13:13:21;;;;;;;1.25;0.80;;;3.60;81.40;;;;;;5009458;28;20012;-70
2021/12/25 13:15:51;;;;;;;3.70;1.30;;;3.70;81.40;;;;;;5006583;28;20531;-70
2021/12/25 13:18:26;;;;;;;1.50;0.83;;;3.60;81.40;;;;;;5009159;28;20046;-70
2021/12/25 13:20:54;;;;;;;2.47;1.20;;;3.70;81.40;;;;;;5008810;28;20465;-71
2021/12/25 13:23:25;;;;;;;4.00;1.20;;;3.70;81.30;;;;;;5008447;28;20042;-71
2021/12/25 13:25:55;;;;;;;3.58;1.85;;;3.70;81.10;;;;;;5008436;28;20053;-70
2021/12/25 13:28:23;;;;;;;;;;;3.70;81.10;;;;;;5008137;28;20116;-71
2021/12/25 13:30:53;;;;;;;1.23;0.52;;;3.70;81.10;;;;;;5008586;28;19921;-71
2021/12/25 13:33:23;;;;;;;1.40;0.70;;;3.70;80.90;;;;;;4989439;28;20403;-70
2021/12/25 13:36:00;;;;;;;1.13;0.80;;;3.60;81.00;;;;;;5007826;28;20121;-71
2021/12/25 13:38:28;;;;;;;2.05;0.98;;;3.60;80.80;;;;;;5008489;28;20052;-71
2021/12/25 13:40:55;;;;;;;2.03;0.90;;;3.60;80.70;;;;;;5008315;28;20049;-71
2021/12/25 13:43:22;;;;;;;2.05;1.00;;;3.60;80.70;;;;;;5008288;28;20587;-71
2021/12/25 13:45:57;;;;;;;3.00;1.10;;;3.60;80.70;;;;;;5009080;28;20427;-72
2021/12/25 13:48:24;;;;;;;5.13;1.30;;;3.50;80.70;;;;;;5008405;28;20054;-70
2021/12/25 13:50:52;;;;;;;3.40;0.98;;;3.60;80.70;;;;;;4999082;28;20407;-69
2021/12/25 13:53:19;;;;;;;2.00;1.00;;;3.50;80.50;;;;;;5010545;28;20547;-71
2021/12/25 13:55:49;;;;;;;1.58;1.00;;;3.50;80.60;;;;;;5010944;28;20058;-70
2021/12/25 13:58:18;;;;;;;2.70;1.27;;;3.50;80.40;;;;;;5009267;28;20487;-70
2021/12/25 14:00:48;;;;;;;4.45;1.70;;;3.40;80.30;;;;;;5008061;28;20495;-69
2021/12/25 14:03:19;;;;;;;5.53;2.05;;;3.50;80.40;;;;;;5010564;28;20563;-70
2021/12/25 14:05:49;;;;;;;2.40;1.23;;;3.40;80.40;;;;;;5010170;28;20630;-70
2021/12/25 14:08:20;;;;;;;4.38;1.63;;;3.40;80.30;;;;;;5010188;28;20121;-70
2021/12/25 14:10:48;;;;;;;3.35;1.38;;;3.40;80.10;;;;;;5009486;28;20061;-70
2021/12/25 14:13:18;;;;;;;2.63;1.00;;;3.40;80.10;;;;;;5010073;28;20074;-71
2021/12/25 14:15:47;;;;;;;1.75;1.10;;;3.40;80.00;;;;;;5010044;28;20052;-70
2021/12/25 14:18:15;;;;;;;2.33;0.95;;;3.30;79.60;;;;;;5010413;28;20048;-69
2021/12/25 14:20:43;;;;;;;2.17;0.95;;;3.30;79.60;;;;;;5009543;28;20088;-70